Terminal Aerodrome Forecast
Issued by NWS

Home | Current Version | Previous Version | Text Only | Print | Product List | Glossary On
Versions: 1 2 3 4 5 6 7 8 9 10 11 12 13 14 15 16 17
000
FTAK31 PAJN 240903 AAA
TAFASI
TAF AMD
PASI 240903Z 2409/2506 17012G20KT P6SM -RA SCT015 BKN035 OVC060
      TEMPO 2409/2413 3SM -RA BR FEW010 BKN025 OVC035
     FM241300 16011KT 6SM -RA SCT006 BKN015 OVC020
      TEMPO 2413/2417 2SM RA BR BKN006 OVC015
     FM241800 18012G20KT P6SM -SHRA SCT010 OVC025
     FM242200 24012KT P6SM -SHRA SCT020 OVC040 PROB30 2422/2504 4SM
      SHRA OVC020=

USA.gov is the U.S. government's official web portal to all federal, state and local government web resources and services.